Time;durP1;ratioP1;P1;durP2;ratioP2;P2;SDS_P1;SDS_P2;PMS_P1;PMS_P2;Temp;Humidity;BMP_temperature;BMP_pressure;BME280_temperature;BME280_humidity;BME280_pressure;Samples;Min_cycle;Max_cycle;Signal;HPM_P1;HPM_P2
2022/01/05 05:00:38;;;;;;;1.10;1.10;;;5.20;99.90;;;;;;5962873;23;20488;-73
2022/01/05 05:03:05;;;;;;;1.10;1.10;;;5.20;99.90;;;;;;4973052;28;21073;-74
2022/01/05 05:05:33;;;;;;;1.07;1.07;;;5.20;99.90;;;;;;4973328;28;20534;-74
2022/01/05 05:08:01;;;;;;;1.70;1.43;;;5.20;99.90;;;;;;4973324;28;20448;-74
2022/01/05 05:10:28;;;;;;;1.20;1.20;;;5.10;99.90;;;;;;4972707;28;20935;-74
2022/01/05 05:12:55;;;;;;;1.23;1.23;;;5.20;99.90;;;;;;4973169;28;20492;-74
2022/01/05 05:15:22;;;;;;;1.47;1.10;;;5.20;99.90;;;;;;4973888;28;20458;-73
2022/01/05 05:17:50;;;;;;;1.10;1.10;;;5.20;99.90;;;;;;4973190;28;20550;-73
2022/01/05 05:20:17;;;;;;;1.00;1.00;;;5.20;99.90;;;;;;4972820;28;20579;-73
2022/01/05 05:22:44;;;;;;;1.10;1.10;;;5.20;99.90;;;;;;4972862;28;21051;-73
2022/01/05 05:25:11;;;;;;;1.47;1.33;;;4.70;99.90;;;;;;4973021;28;20536;-72
2022/01/05 05:27:38;;;;;;;1.60;1.50;;;4.40;99.90;;;;;;4974512;28;20530;-73
2022/01/05 05:30:06;;;;;;;1.67;1.57;;;4.10;99.90;;;;;;4976378;28;20538;-73
2022/01/05 05:32:33;;;;;;;2.27;1.93;;;3.90;99.90;;;;;;4976669;28;21063;-72
2022/01/05 05:35:02;;;;;;;2.07;1.97;;;3.80;99.90;;;;;;4976840;28;20546;-72
2022/01/05 05:37:29;;;;;;;2.53;2.33;;;3.50;99.90;;;;;;4976566;28;20452;-73
2022/01/05 05:39:55;;;;;;;2.43;2.20;;;3.50;99.90;;;;;;4976545;28;20480;-72
2022/01/05 05:42:22;;;;;;;3.00;2.80;;;3.40;99.90;;;;;;4976473;28;20590;-72
2022/01/05 05:44:49;;;;;;;3.40;3.20;;;3.30;99.90;;;;;;4976399;28;20911;-72
2022/01/05 05:47:16;;;;;;;3.70;3.40;;;3.20;99.90;;;;;;4976881;28;20534;-73
2022/01/05 05:49:44;;;;;;;4.30;3.90;;;3.10;99.90;;;;;;4976543;28;20538;-73
2022/01/05 05:52:12;;;;;;;4.30;3.90;;;3.00;99.90;;;;;;4976330;28;20992;-72
2022/01/05 05:54:40;;;;;;;4.33;4.03;;;2.90;99.90;;;;;;4976406;28;20546;-74
2022/01/05 05:57:07;;;;;;;4.60;4.20;;;2.80;99.90;;;;;;4976298;28;20538;-72
2022/01/05 05:59:34;;;;;;;5.63;5.07;;;2.80;99.90;;;;;;4976287;28;20529;-73
2022/01/05 06:02:01;;;;;;;5.67;5.17;;;2.80;99.90;;;;;;4975987;28;20570;-72
2022/01/05 06:04:29;;;;;;;9.00;5.00;;;2.80;99.90;;;;;;4976340;28;20534;-72
2022/01/05 06:06:56;;;;;;;6.50;5.70;;;2.90;99.90;;;;;;4976355;28;20455;-73
2022/01/05 06:09:24;;;;;;;7.50;5.83;;;2.90;99.90;;;;;;4976007;28;20539;-72
2022/01/05 06:11:51;;;;;;;7.93;5.67;;;2.90;99.90;;;;;;4975962;28;20518;-72
2022/01/05 06:14:18;;;;;;;7.13;6.13;;;2.90;99.90;;;;;;4976225;28;20547;-73
2022/01/05 06:16:45;;;;;;;8.00;6.00;;;2.90;99.90;;;;;;4975976;28;20534;-73
2022/01/05 06:19:12;;;;;;;8.40;7.47;;;2.90;99.90;;;;;;4975841;28;20547;-72
2022/01/05 06:21:39;;;;;;;8.30;7.50;;;2.90;99.90;;;;;;4975914;28;20478;-72
2022/01/05 06:24:06;;;;;;;10.33;7.40;;;2.90;99.90;;;;;;4975668;28;20546;-72
2022/01/05 06:26:34;;;;;;;9.63;7.33;;;2.90;99.90;;;;;;4975735;28;20539;-72
2022/01/05 06:29:01;;;;;;;10.23;7.50;;;2.80;99.90;;;;;;4975728;28;20491;-73
2022/01/05 06:31:28;;;;;;;9.50;6.13;;;2.80;99.90;;;;;;4975603;28;20562;-72
2022/01/05 06:33:55;;;;;;;11.17;7.83;;;2.80;99.90;;;;;;4975870;28;20547;-73
2022/01/05 06:36:22;;;;;;;7.53;5.77;;;2.90;99.90;;;;;;4975832;28;20451;-73
2022/01/05 06:38:49;;;;;;;10.00;6.57;;;2.90;99.90;;;;;;4975036;28;20498;-73
2022/01/05 06:41:15;;;;;;;9.40;6.53;;;2.90;99.90;;;;;;4975909;28;20559;-73
2022/01/05 06:43:44;;;;;;;9.60;5.60;;;2.90;99.90;;;;;;4975588;28;20496;-73
2022/01/05 06:46:10;;;;;;;9.70;6.00;;;2.90;99.90;;;;;;4975510;28;20740;-73
2022/01/05 06:48:37;;;;;;;9.10;6.00;;;2.90;99.90;;;;;;4975288;28;20543;-73
2022/01/05 06:51:04;;;;;;;10.07;5.90;;;3.00;99.90;;;;;;4975102;28;20877;-72
2022/01/05 06:53:31;;;;;;;8.73;5.20;;;3.00;99.90;;;;;;4975125;28;20535;-73
2022/01/05 06:55:58;;;;;;;11.07;5.10;;;3.00;99.90;;;;;;4975418;28;20530;-73
2022/01/05 06:58:25;;;;;;;12.33;5.87;;;3.00;99.90;;;;;;4975534;28;20535;-73
2022/01/05 07:00:55;;;;;;;7.60;5.40;;;3.00;99.90;;;;;;4974877;28;20995;-73
2022/01/05 07:03:22;;;;;;;10.23;5.70;;;3.00;99.90;;;;;;4975122;28;20534;-73
2022/01/05 07:05:49;;;;;;;12.80;5.40;;;3.00;99.90;;;;;;4975028;28;20451;-73
2022/01/05 07:08:17;;;;;;;6.47;4.77;;;2.90;99.90;;;;;;4975034;28;21070;-73
2022/01/05 07:10:44;;;;;;;7.90;4.43;;;2.90;99.90;;;;;;4974952;28;20514;-73
2022/01/05 07:13:10;;;;;;;7.03;4.13;;;2.90;99.90;;;;;;4975006;28;20535;-73
2022/01/05 07:15:37;;;;;;;17.60;4.83;;;2.80;99.90;;;;;;4974885;28;20995;-73
2022/01/05 07:18:06;;;;;;;8.27;4.00;;;2.80;99.90;;;;;;4974854;28;20538;-72
2022/01/05 07:20:33;;;;;;;9.63;4.73;;;2.80;99.90;;;;;;4974324;28;20555;-72
2022/01/05 07:22:59;;;;;;;3.80;3.30;;;2.90;99.90;;;;;;4974802;28;21074;-72
2022/01/05 07:25:27;;;;;;;5.30;3.30;;;2.80;99.90;;;;;;4974899;28;20531;-73
2022/01/05 07:27:54;;;;;;;5.30;3.53;;;2.80;99.90;;;;;;4974858;28;20462;-72
2022/01/05 07:30:20;;;;;;;6.43;2.83;;;2.70;99.90;;;;;;4974854;28;20538;-73
2022/01/05 07:32:47;;;;;;;11.73;3.07;;;2.60;99.90;;;;;;4975212;28;20535;-71
2022/01/05 07:35:16;;;;;;;2.80;2.57;;;2.60;99.90;;;;;;4974528;28;20456;-72
2022/01/05 07:37:42;;;;;;;6.57;2.97;;;2.60;99.90;;;;;;4974578;28;20539;-73
2022/01/05 07:40:10;;;;;;;6.77;3.13;;;2.60;99.90;;;;;;4974573;28;20462;-72
2022/01/05 07:42:38;;;;;;;2.70;2.50;;;2.60;99.90;;;;;;4974440;28;20534;-72
2022/01/05 07:45:07;;;;;;;4.93;2.83;;;2.60;99.90;;;;;;4974376;28;20551;-73
2022/01/05 07:47:34;;;;;;;3.43;3.03;;;2.50;99.90;;;;;;4974253;28;20448;-71
2022/01/05 07:50:01;;;;;;;5.63;2.87;;;2.50;99.90;;;;;;4973687;28;20542;-71
2022/01/05 07:52:29;;;;;;;5.63;3.37;;;2.40;99.90;;;;;;4974344;28;20558;-71
2022/01/05 07:54:56;;;;;;;2.73;2.30;;;2.30;99.90;;;;;;4974300;28;20538;-71
2022/01/05 07:57:23;;;;;;;3.10;2.40;;;2.20;99.90;;;;;;4974103;28;20458;-72
2022/01/05 07:59:50;;;;;;;5.63;2.90;;;2.20;99.90;;;;;;4973966;28;20956;-71
2022/01/05 08:02:17;;;;;;;6.07;3.20;;;2.20;99.90;;;;;;4973784;28;21059;-71
2022/01/05 08:04:48;;;;;;;4.30;3.13;;;2.10;99.90;;;;;;4974167;28;20591;-72
2022/01/05 08:07:15;;;;;;;6.00;3.60;;;1.90;99.90;;;;;;4974160;28;20452;-71
2022/01/05 08:09:43;;;;;;;3.40;2.97;;;1.90;99.90;;;;;;4973756;28;20543;-71
2022/01/05 08:12:11;;;;;;;5.73;3.40;;;1.80;99.90;;;;;;4974036;28;20482;-71
2022/01/05 08:14:38;;;;;;;5.20;3.90;;;1.80;99.90;;;;;;4973643;28;20476;-71
2022/01/05 08:17:05;;;;;;;7.37;3.20;;;1.80;99.90;;;;;;4974229;28;20543;-71
2022/01/05 08:19:32;;;;;;;6.00;3.40;;;1.80;99.90;;;;;;4973617;28;20546;-72
2022/01/05 08:21:59;;;;;;;3.93;3.40;;;1.80;99.90;;;;;;4973627;28;20546;-71
2022/01/05 08:24:27;;;;;;;5.73;3.20;;;1.80;99.90;;;;;;4973694;28;20595;-72
2022/01/05 08:26:55;;;;;;;8.00;4.30;;;1.70;99.90;;;;;;4974252;28;20953;-71
2022/01/05 08:29:23;;;;;;;4.40;3.60;;;1.70;99.90;;;;;;4973126;28;20826;-71
2022/01/05 08:31:50;;;;;;;5.77;4.47;;;1.70;99.90;;;;;;4973663;28;20490;-72
2022/01/05 08:34:17;;;;;;;4.70;4.30;;;1.70;99.90;;;;;;4974052;28;20519;-71
2022/01/05 08:36:44;;;;;;;5.90;4.30;;;1.80;99.90;;;;;;4975866;28;20547;-72
2022/01/05 08:39:11;;;;;;;6.30;4.27;;;1.80;99.90;;;;;;4973251;28;20543;-72
2022/01/05 08:41:38;;;;;;;6.50;4.70;;;1.80;99.90;;;;;;4973242;28;20475;-72
2022/01/05 08:44:06;;;;;;;6.93;4.30;;;1.90;99.90;;;;;;4973200;28;20587;-72
2022/01/05 08:46:33;;;;;;;8.30;4.30;;;1.90;99.90;;;;;;4973484;28;20483;-72
2022/01/05 08:49:00;;;;;;;9.70;4.80;;;1.90;99.90;;;;;;4973103;28;20467;-72
2022/01/05 08:51:27;;;;;;;6.13;4.47;;;1.90;99.90;;;;;;4973355;28;20558;-72
2022/01/05 08:53:54;;;;;;;10.40;4.30;;;1.90;99.90;;;;;;4973252;28;20472;-72
2022/01/05 08:56:23;;;;;;;8.03;4.63;;;1.90;99.90;;;;;;4972986;28;20452;-72
2022/01/05 08:58:50;;;;;;;10.10;4.07;;;1.90;99.90;;;;;;4973268;28;20463;-74
2022/01/05 09:01:18;;;;;;;8.30;3.43;;;1.90;99.90;;;;;;4972691;28;20515;-71
2022/01/05 09:03:45;;;;;;;5.10;3.33;;;2.00;99.90;;;;;;4972788;28;20517;-72
2022/01/05 09:06:12;;;;;;;6.80;4.03;;;2.00;99.90;;;;;;4973137;28;20940;-72
2022/01/05 09:08:39;;;;;;;13.37;4.40;;;2.00;99.90;;;;;;4972824;28;20965;-72
2022/01/05 09:11:08;;;;;;;10.07;4.90;;;2.00;99.90;;;;;;4973009;28;20476;-72
2022/01/05 09:13:35;;;;;;;7.57;3.67;;;2.00;99.90;;;;;;4972895;28;20455;-72
2022/01/05 09:16:02;;;;;;;8.40;3.67;;;2.10;99.90;;;;;;4973093;28;20567;-73
2022/01/05 09:18:31;;;;;;;6.60;3.70;;;2.10;99.90;;;;;;4972838;28;20940;-72
2022/01/05 09:20:58;;;;;;;7.00;3.77;;;2.00;99.90;;;;;;4972673;28;20908;-71
2022/01/05 09:23:25;;;;;;;7.73;3.10;;;2.00;99.90;;;;;;4972422;28;20865;-72
2022/01/05 09:25:52;;;;;;;12.87;3.60;;;2.10;99.90;;;;;;4973160;28;20547;-72
2022/01/05 09:28:19;;;;;;;5.87;3.40;;;2.10;99.90;;;;;;4972776;28;20548;-72
2022/01/05 09:30:46;;;;;;;5.30;3.70;;;2.10;99.90;;;;;;4972522;28;20511;-72
2022/01/05 09:33:14;;;;;;;6.50;4.10;;;2.10;99.90;;;;;;4972891;28;20467;-71
2022/01/05 09:35:43;;;;;;;9.43;3.97;;;2.10;99.90;;;;;;4972731;28;20491;-72
2022/01/05 09:38:23;;;;;;;10.03;4.20;;;2.20;99.90;;;;;;4972617;28;20491;-73
2022/01/05 09:43:51;;;;;;;8.70;4.47;;;2.10;99.90;;;;;;4972748;28;20526;-72
2022/01/05 09:46:31;;;;;;;8.23;4.80;;;2.10;99.90;;;;;;4972624;28;20466;-71
2022/01/05 09:49:09;;;;;;;10.13;4.70;;;2.10;99.90;;;;;;4972547;28;20439;-74
2022/01/05 09:51:40;;;;;;;15.97;4.53;;;2.10;99.90;;;;;;4972585;28;20479;-71
2022/01/05 09:54:09;;;;;;;14.03;4.90;;;2.10;99.90;;;;;;4972640;28;20448;-73
2022/01/05 09:56:37;;;;;;;6.17;4.03;;;2.20;99.90;;;;;;4972557;28;20995;-71
2022/01/05 09:59:04;;;;;;;5.63;3.27;;;2.20;99.90;;;;;;4972528;28;20554;-72
2022/01/05 10:01:33;;;;;;;11.20;3.83;;;2.20;99.90;;;;;;4972506;28;20575;-72
2022/01/05 10:04:01;;;;;;;6.10;2.87;;;2.20;99.90;;;;;;4972487;28;20595;-71
2022/01/05 10:06:28;;;;;;;6.20;2.90;;;2.20;99.90;;;;;;4972639;28;20487;-71
2022/01/05 10:08:56;;;;;;;12.50;3.23;;;2.20;99.90;;;;;;4972341;28;20535;-71
2022/01/05 10:11:23;;;;;;;12.87;3.27;;;2.10;99.90;;;;;;4972310;28;20571;-71
2022/01/05 10:13:51;;;;;;;8.53;2.70;;;2.20;99.90;;;;;;4974509;28;20440;-71
2022/01/05 10:16:18;;;;;;;10.03;2.90;;;2.10;99.90;;;;;;4976213;28;20452;-71
2022/01/05 10:18:46;;;;;;;3.47;2.43;;;2.10;99.90;;;;;;4975832;28;20547;-71
2022/01/05 10:21:15;;;;;;;7.97;3.00;;;2.10;99.90;;;;;;4975676;28;20566;-71
2022/01/05 10:23:45;;;;;;;7.77;2.80;;;2.10;99.90;;;;;;4976123;28;20495;-72
2022/01/05 10:26:36;;;;;;;3.53;2.20;;;2.20;99.90;;;;;;4976225;28;20912;-72
2022/01/05 10:29:05;;;;;;;3.40;2.73;;;2.20;99.90;;;;;;4972267;28;20558;-71
2022/01/05 10:31:37;;;;;;;13.23;2.60;;;2.20;99.90;;;;;;4976536;28;20496;-71
2022/01/05 10:34:15;;;;;;;7.93;3.07;;;2.20;99.90;;;;;;4976555;28;20512;-72
2022/01/05 10:36:46;;;;;;;7.03;3.37;;;2.30;99.90;;;;;;4975664;28;20951;-71
2022/01/05 10:39:14;;;;;;;10.30;2.40;;;2.30;99.90;;;;;;4975427;28;20456;-71
2022/01/05 10:41:43;;;;;;;11.37;3.10;;;2.30;99.90;;;;;;4975616;28;20488;-71
2022/01/05 10:44:15;;;;;;;8.13;2.77;;;2.30;99.90;;;;;;4975546;28;20558;-71
2022/01/05 10:46:45;;;;;;;5.33;2.30;;;2.40;99.90;;;;;;4975383;28;20466;-72
2022/01/05 10:49:26;;;;;;;7.43;2.43;;;2.40;99.90;;;;;;4975414;28;20458;-71
2022/01/05 10:51:54;;;;;;;4.70;2.50;;;2.40;99.90;;;;;;4975561;28;20562;-71
2022/01/05 10:54:23;;;;;;;5.47;2.60;;;2.40;99.90;;;;;;4975298;28;20952;-72
2022/01/05 10:56:52;;;;;;;4.40;2.30;;;2.40;99.90;;;;;;4975245;28;20488;-72
2022/01/05 10:59:28;;;;;;;8.30;2.80;;;2.40;99.90;;;;;;4974903;28;20506;-71
2022/01/05 11:01:56;;;;;;;5.70;2.43;;;2.50;99.90;;;;;;4975219;28;20484;-71
2022/01/05 11:04:24;;;;;;;12.70;3.13;;;2.40;99.90;;;;;;4975207;28;20499;-71
2022/01/05 11:06:58;;;;;;;7.93;2.50;;;2.40;99.90;;;;;;4975228;28;20511;-71
2022/01/05 11:09:26;;;;;;;6.43;2.60;;;2.40;99.90;;;;;;4974962;28;20475;-71
2022/01/05 11:11:54;;;;;;;13.57;3.20;;;2.50;99.90;;;;;;4974689;28;20527;-71
2022/01/05 11:14:29;;;;;;;5.30;2.90;;;2.50;99.90;;;;;;4979089;28;20507;-73
2022/01/05 11:16:58;;;;;;;9.87;3.00;;;2.60;99.90;;;;;;4984067;28;20487;-72
2022/01/05 11:19:27;;;;;;;6.37;2.20;;;2.60;99.90;;;;;;4984095;28;20452;-73
2022/01/05 11:22:00;;;;;;;6.03;2.33;;;2.70;99.90;;;;;;4983860;28;20498;-73
2022/01/05 11:24:28;;;;;;;12.23;3.20;;;2.80;99.90;;;;;;4983687;28;20555;-73
2022/01/05 11:26:57;;;;;;;7.90;2.60;;;3.00;99.90;;;;;;4983835;28;20456;-73
2022/01/05 11:29:24;;;;;;;5.73;2.30;;;3.00;99.90;;;;;;4983781;28;20471;-73
2022/01/05 11:31:51;;;;;;;10.93;2.57;;;3.20;99.90;;;;;;4982563;28;20894;-73
2022/01/05 11:34:19;;;;;;;6.10;3.00;;;3.30;99.90;;;;;;4981283;28;20452;-74
2022/01/05 11:36:46;;;;;;;8.83;2.80;;;3.40;99.90;;;;;;4981618;28;20940;-73
2022/01/05 11:39:13;;;;;;;9.60;2.60;;;3.40;99.90;;;;;;4981671;28;20459;-73
2022/01/05 11:41:44;;;;;;;11.90;3.03;;;3.50;99.90;;;;;;4982342;28;20826;-74
2022/01/05 11:44:13;;;;;;;7.53;3.20;;;3.40;99.90;;;;;;4983252;28;20940;-73
2022/01/05 11:46:42;;;;;;;4.50;2.70;;;3.40;99.90;;;;;;4983059;28;20451;-73
2022/01/05 11:49:11;;;;;;;9.20;2.70;;;3.20;99.90;;;;;;4982500;28;20545;-73
2022/01/05 11:51:50;;;;;;;10.53;2.50;;;3.20;99.90;;;;;;4982788;28;20471;-73
2022/01/05 11:54:20;;;;;;;6.80;2.60;;;3.20;99.90;;;;;;4981100;28;20444;-73
2022/01/05 11:56:48;;;;;;;4.97;3.00;;;3.20;99.90;;;;;;4982210;28;20455;-73
2022/01/05 11:59:41;;;;;;;6.23;2.63;;;3.10;99.90;;;;;;4982330;28;20510;-72
2022/01/05 12:02:09;;;;;;;7.83;3.20;;;3.00;99.90;;;;;;4972813;28;20519;-73
2022/01/05 12:05:01;;;;;;;10.73;4.13;;;3.00;99.90;;;;;;4982200;28;20483;-73
2022/01/05 12:07:37;;;;;;;4.97;2.60;;;2.90;99.90;;;;;;4981470;28;20890;-73
2022/01/05 12:10:12;;;;;;;5.60;3.00;;;2.90;99.90;;;;;;4981380;28;20479;-73
2022/01/05 12:12:53;;;;;;;15.90;4.77;;;2.90;99.90;;;;;;4981925;28;20515;-73
2022/01/05 12:15:43;;;;;;;7.87;4.03;;;2.90;99.90;;;;;;4983001;28;20448;-73
2022/01/05 12:18:11;;;;;;;10.40;3.97;;;2.90;99.90;;;;;;4982004;28;20456;-73
2022/01/05 12:20:40;;;;;;;5.97;3.03;;;2.90;99.90;;;;;;4981365;28;20550;-73
2022/01/05 12:23:18;;;;;;;6.00;2.50;;;2.90;99.90;;;;;;4983018;28;20480;-73
2022/01/05 12:26:16;;;;;;;9.13;3.63;;;2.90;99.90;;;;;;4981451;28;20491;-73
2022/01/05 12:28:52;;;;;;;8.10;2.80;;;2.80;99.90;;;;;;4980148;28;20882;-73
2022/01/05 12:31:56;;;;;;;13.30;3.00;;;2.80;99.90;;;;;;4981652;28;20475;-73
2022/01/05 12:34:55;;;;;;;9.50;2.87;;;2.70;99.90;;;;;;4980970;28;20462;-72
2022/01/05 12:37:44;;;;;;;5.30;2.50;;;2.70;99.90;;;;;;4981630;28;20459;-73
2022/01/05 12:40:29;;;;;;;7.37;4.47;;;2.70;99.90;;;;;;4981156;28;20488;-73
2022/01/05 12:43:34;;;;;;;6.73;3.17;;;2.80;99.90;;;;;;4981886;28;20482;-73
2022/01/05 12:46:05;;;;;;;10.90;3.50;;;2.80;99.90;;;;;;4982114;28;20495;-73
2022/01/05 12:49:00;;;;;;;9.33;2.97;;;2.80;99.90;;;;;;4981366;28;20478;-74
2022/01/05 12:51:53;;;;;;;11.73;3.40;;;2.80;99.90;;;;;;4981389;28;20468;-74
2022/01/05 12:54:23;;;;;;;16.83;3.80;;;2.80;99.90;;;;;;4971492;28;20464;-73
2022/01/05 12:56:53;;;;;;;9.80;3.60;;;2.80;99.90;;;;;;4981492;28;20456;-73
2022/01/05 12:59:22;;;;;;;8.90;2.90;;;2.80;99.90;;;;;;4981006;28;20889;-73
2022/01/05 13:01:52;;;;;;;6.70;2.63;;;2.80;99.90;;;;;;4979368;28;20534;-74
2022/01/05 13:04:24;;;;;;;8.00;2.53;;;2.90;99.90;;;;;;4980933;28;20479;-73
2022/01/05 13:06:53;;;;;;;4.03;2.00;;;2.80;99.90;;;;;;4979847;28;20451;-75
2022/01/05 13:09:27;;;;;;;4.63;2.50;;;2.80;99.90;;;;;;4978786;28;20867;-73
2022/01/05 13:11:57;;;;;;;6.67;3.53;;;2.80;99.90;;;;;;4978665;28;20475;-73
2022/01/05 13:14:27;;;;;;;5.47;2.60;;;2.70;99.90;;;;;;4979779;28;20459;-73
2022/01/05 13:16:56;;;;;;;13.13;3.33;;;2.70;99.90;;;;;;4978662;28;20499;-72
2022/01/05 13:19:42;;;;;;;9.67;3.23;;;2.70;99.90;;;;;;4980056;28;20535;-73
2022/01/05 13:22:12;;;;;;;6.67;3.10;;;2.80;99.90;;;;;;4980523;28;20551;-73
2022/01/05 13:24:45;;;;;;;9.63;2.33;;;2.80;99.90;;;;;;4979916;28;20547;-74
2022/01/05 13:27:14;;;;;;;7.53;2.87;;;2.90;99.90;;;;;;4979816;28;20893;-74
2022/01/05 13:29:41;;;;;;;5.30;2.70;;;2.90;99.90;;;;;;4979887;28;20534;-74
2022/01/05 13:32:10;;;;;;;4.90;2.40;;;2.90;99.90;;;;;;4980651;28;20518;-74
2022/01/05 13:34:40;;;;;;;6.30;2.50;;;3.00;99.90;;;;;;4981558;28;20531;-74
2022/01/05 13:37:08;;;;;;;6.50;2.80;;;3.00;99.90;;;;;;4980977;28;20511;-73
2022/01/05 13:39:41;;;;;;;5.70;2.50;;;2.90;99.90;;;;;;4980566;28;20486;-74
2022/01/05 13:42:10;;;;;;;6.57;2.60;;;3.00;99.90;;;;;;4980826;28;20464;-74
2022/01/05 13:44:38;;;;;;;7.23;2.57;;;3.00;99.90;;;;;;4980964;28;20538;-74
2022/01/05 13:47:06;;;;;;;3.90;2.40;;;3.00;99.90;;;;;;4980421;28;20463;-74
2022/01/05 13:49:33;;;;;;;6.50;2.43;;;3.00;99.90;;;;;;4982487;28;20483;-73
2022/01/05 13:52:08;;;;;;;5.13;2.60;;;3.00;99.90;;;;;;4983624;28;21003;-74
2022/01/05 13:54:36;;;;;;;7.70;2.53;;;3.00;99.90;;;;;;4983598;28;20482;-74
2022/01/05 13:57:04;;;;;;;8.93;5.33;;;3.00;99.90;;;;;;4985190;28;20586;-73
2022/01/05 13:59:43;;;;;;;7.77;2.57;;;2.90;99.90;;;;;;4983565;28;20984;-74
2022/01/05 14:02:10;;;;;;;10.73;2.33;;;2.90;99.90;;;;;;4983270;28;20519;-73
2022/01/05 14:04:54;;;;;;;7.80;2.60;;;2.90;99.90;;;;;;4983040;28;20488;-74
2022/01/05 14:07:25;;;;;;;7.00;2.30;;;2.90;99.90;;;;;;4982847;28;20473;-74
2022/01/05 14:10:11;;;;;;;17.30;2.67;;;2.90;99.90;;;;;;4981425;28;20542;-74
2022/01/05 14:12:41;;;;;;;11.80;2.30;;;2.80;99.90;;;;;;4983203;28;20510;-74
2022/01/05 14:15:09;;;;;;;5.60;2.53;;;2.80;99.90;;;;;;4984077;28;20527;-74
2022/01/05 14:17:37;;;;;;;11.80;3.70;;;2.80;99.90;;;;;;4984448;28;20515;-73
2022/01/05 14:20:22;;;;;;;10.30;2.77;;;2.90;99.90;;;;;;4983767;28;20535;-74
2022/01/05 14:23:16;;;;;;;7.53;3.10;;;2.90;99.90;;;;;;4984120;28;20528;-74
2022/01/05 14:25:45;;;;;;;5.40;2.27;;;2.90;99.90;;;;;;4969324;28;20527;-74
2022/01/05 14:28:15;;;;;;;12.80;4.07;;;2.80;99.90;;;;;;4982252;28;20455;-74
2022/01/05 14:30:57;;;;;;;7.43;3.83;;;2.80;99.90;;;;;;4982579;28;20503;-74
2022/01/05 14:33:38;;;;;;;5.10;2.97;;;2.80;99.90;;;;;;4982736;28;20458;-74
2022/01/05 14:36:18;;;;;;;5.90;3.13;;;2.80;99.90;;;;;;4982404;28;20510;-74
2022/01/05 14:38:58;;;;;;;6.17;2.80;;;2.80;99.90;;;;;;4982793;28;21003;-74
2022/01/05 14:41:34;;;;;;;6.10;3.27;;;2.80;99.90;;;;;;4983812;28;20510;-74
2022/01/05 14:44:26;;;;;;;5.60;2.97;;;2.80;99.90;;;;;;4982836;28;21016;-73
2022/01/05 14:46:58;;;;;;;10.20;3.50;;;2.80;99.90;;;;;;4968595;28;20953;-73
2022/01/05 14:49:25;;;;;;;16.53;3.20;;;2.80;99.90;;;;;;4982874;28;20537;-74
2022/01/05 14:51:52;;;;;;;9.93;4.20;;;2.80;99.90;;;;;;4982772;28;20999;-74
2022/01/05 14:54:25;;;;;;;7.00;3.27;;;2.80;99.90;;;;;;4981233;28;20480;-73
2022/01/05 14:56:52;;;;;;;9.33;3.20;;;2.80;99.90;;;;;;4981905;28;20498;-74
2022/01/05 14:59:19;;;;;;;7.00;3.17;;;2.80;99.90;;;;;;4982666;28;20480;-74
2022/01/05 15:01:46;;;;;;;9.27;3.70;;;2.80;99.90;;;;;;4981890;28;20499;-73
2022/01/05 15:04:13;;;;;;;6.67;2.97;;;2.80;99.90;;;;;;4982053;28;21020;-74
2022/01/05 15:06:40;;;;;;;11.47;2.60;;;2.80;99.90;;;;;;4982912;28;20582;-74
2022/01/05 15:09:09;;;;;;;5.70;2.33;;;2.80;99.90;;;;;;4981374;28;20459;-74
2022/01/05 15:11:38;;;;;;;9.00;4.00;;;2.80;99.90;;;;;;4983053;28;20511;-73
2022/01/05 15:14:05;;;;;;;6.37;2.60;;;2.80;99.90;;;;;;4982754;28;20968;-74
2022/01/05 15:16:33;;;;;;;6.90;2.40;;;2.80;99.90;;;;;;4983250;28;20480;-73
2022/01/05 15:19:00;;;;;;;6.50;2.60;;;2.80;99.90;;;;;;4981707;28;20987;-74
2022/01/05 15:21:27;;;;;;;6.50;2.60;;;2.70;99.90;;;;;;4982189;28;20512;-74
2022/01/05 15:23:54;;;;;;;8.60;3.17;;;2.70;99.90;;;;;;4982178;28;20463;-73
2022/01/05 15:26:21;;;;;;;8.27;2.33;;;2.80;99.90;;;;;;4981693;28;20583;-73
2022/01/05 15:28:50;;;;;;;6.17;2.67;;;2.80;99.90;;;;;;4979924;28;20483;-71
2022/01/05 15:31:17;;;;;;;8.60;2.83;;;2.70;99.90;;;;;;4978883;28;20476;-73
2022/01/05 15:33:44;;;;;;;6.47;2.93;;;2.70;99.90;;;;;;4978890;28;20491;-73
2022/01/05 15:36:11;;;;;;;6.70;3.00;;;2.70;99.90;;;;;;4979478;28;20479;-73
2022/01/05 15:38:38;;;;;;;8.47;4.57;;;2.70;99.90;;;;;;4980913;28;20490;-73
2022/01/05 15:41:06;;;;;;;8.97;3.57;;;2.70;99.90;;;;;;4981602;28;20515;-73
2022/01/05 15:43:34;;;;;;;6.00;2.60;;;2.80;99.90;;;;;;4981327;28;20985;-72
2022/01/05 15:46:03;;;;;;;7.73;2.53;;;2.80;99.90;;;;;;4982010;28;20582;-73
2022/01/05 15:48:30;;;;;;;8.87;2.70;;;2.80;99.90;;;;;;4981923;28;20463;-74
2022/01/05 15:50:57;;;;;;;5.30;2.40;;;2.70;99.90;;;;;;4981419;28;20511;-74
2022/01/05 15:53:25;;;;;;;4.70;3.27;;;2.70;99.90;;;;;;4979905;28;20539;-73
2022/01/05 15:55:58;;;;;;;10.43;2.27;;;2.70;99.90;;;;;;4979635;28;20459;-74
2022/01/05 16:01:28;;;;;;;20.77;10.93;;;2.70;99.90;;;;;;4969046;28;20567;-74
2022/01/05 16:04:00;;;;;;;28.47;13.73;;;2.70;99.90;;;;;;4979776;28;20459;-73
2022/01/05 16:06:27;;;;;;;16.47;6.60;;;2.70;99.90;;;;;;4979971;28;20631;-74
2022/01/05 16:08:55;;;;;;;9.27;2.70;;;2.60;99.90;;;;;;4978133;28;20530;-73
2022/01/05 16:11:22;;;;;;;13.10;3.20;;;2.60;99.90;;;;;;4976794;28;20878;-73
2022/01/05 16:13:50;;;;;;;9.57;3.10;;;2.60;99.90;;;;;;4977285;28;20576;-72
2022/01/05 16:16:18;;;;;;;4.33;2.50;;;2.60;99.90;;;;;;4974103;28;20872;-72
2022/01/05 16:18:46;;;;;;;6.70;4.00;;;2.50;99.90;;;;;;4973756;28;20940;-72
2022/01/05 16:21:14;;;;;;;9.33;4.20;;;2.50;99.90;;;;;;4973814;28;20510;-72
2022/01/05 16:23:42;;;;;;;8.47;2.80;;;2.50;99.90;;;;;;4973945;28;21033;-72
2022/01/05 16:26:09;;;;;;;5.53;2.80;;;2.50;99.90;;;;;;4973840;28;20502;-72
2022/01/05 16:28:36;;;;;;;6.13;2.67;;;2.60;99.90;;;;;;4973522;28;20460;-73
2022/01/05 16:31:03;;;;;;;9.30;2.47;;;2.60;99.90;;;;;;4973617;28;20472;-72
2022/01/05 16:33:35;;;;;;;5.63;2.50;;;2.60;99.90;;;;;;4973563;28;20543;-72
2022/01/05 16:36:03;;;;;;;8.47;2.87;;;2.60;99.90;;;;;;4973716;28;20456;-72
2022/01/05 16:38:31;;;;;;;6.00;2.50;;;2.60;99.90;;;;;;4973555;28;20494;-73
2022/01/05 16:40:58;;;;;;;3.67;2.37;;;2.60;99.90;;;;;;4973141;28;20559;-73
2022/01/05 16:43:25;;;;;;;4.20;2.27;;;2.60;99.90;;;;;;4973213;28;20519;-72
2022/01/05 16:45:52;;;;;;;12.33;2.57;;;2.60;99.90;;;;;;4973399;28;20574;-72
2022/01/05 16:48:19;;;;;;;3.43;2.43;;;2.60;99.90;;;;;;4973261;28;20895;-72
2022/01/05 16:50:47;;;;;;;6.90;2.90;;;2.60;99.90;;;;;;4973181;28;20512;-73
2022/01/05 16:53:14;;;;;;;9.63;2.50;;;2.60;99.90;;;;;;4973366;28;20536;-72
2022/01/05 16:55:43;;;;;;;5.60;2.83;;;2.60;99.90;;;;;;4973182;28;20933;-72
2022/01/05 17:00:54;;;;;;;6.50;3.20;;;2.60;99.90;;;;;;4962093;28;20472;-72
2022/01/05 17:03:20;;;;;;;3.00;1.97;;;2.60;99.90;;;;;;4973105;28;20492;-72
2022/01/05 17:05:49;;;;;;;9.83;2.63;;;2.60;99.90;;;;;;4972994;28;21019;-72
2022/01/05 17:08:18;;;;;;;3.43;2.10;;;2.60;99.90;;;;;;4973271;28;20575;-73
2022/01/05 17:10:47;;;;;;;5.33;2.63;;;2.60;99.90;;;;;;4973025;28;20562;-72
2022/01/05 17:13:16;;;;;;;3.43;2.07;;;2.60;99.90;;;;;;4972943;28;20799;-72
2022/01/05 17:15:43;;;;;;;5.60;2.30;;;2.60;99.90;;;;;;4973665;28;20535;-72
2022/01/05 17:18:11;;;;;;;8.63;2.77;;;2.60;99.90;;;;;;4973121;28;20463;-72
2022/01/05 17:20:38;;;;;;;12.23;3.10;;;2.60;99.90;;;;;;4972585;28;21028;-72
2022/01/05 17:23:06;;;;;;;6.47;2.70;;;2.60;99.90;;;;;;4973942;28;20548;-72
2022/01/05 17:25:34;;;;;;;10.53;2.50;;;2.60;99.90;;;;;;4977170;28;20539;-71
2022/01/05 17:28:01;;;;;;;4.57;2.47;;;2.60;99.90;;;;;;4977206;28;20448;-72
2022/01/05 17:30:28;;;;;;;5.20;2.67;;;2.60;99.90;;;;;;4976598;28;20463;-72
2022/01/05 17:32:55;;;;;;;8.07;2.70;;;2.70;99.90;;;;;;4976708;28;20467;-72
2022/01/05 17:35:22;;;;;;;7.90;2.53;;;2.70;99.90;;;;;;4976898;28;20452;-71
2022/01/05 17:37:50;;;;;;;10.70;2.70;;;2.70;99.90;;;;;;4976918;28;21023;-72
2022/01/05 17:40:18;;;;;;;7.60;2.73;;;2.60;99.90;;;;;;4976623;28;20452;-72
2022/01/05 17:42:46;;;;;;;8.20;3.50;;;2.60;99.90;;;;;;4976753;28;20555;-72
2022/01/05 17:45:13;;;;;;;8.23;2.70;;;2.60;99.90;;;;;;4976684;28;20460;-72
2022/01/05 17:47:41;;;;;;;9.10;3.00;;;2.70;99.90;;;;;;4976373;28;20492;-72
2022/01/05 17:50:08;;;;;;;4.93;2.17;;;2.70;99.90;;;;;;4976402;28;20459;-72
2022/01/05 17:52:35;;;;;;;7.87;2.87;;;2.60;99.90;;;;;;4976777;28;20506;-72
2022/01/05 17:55:03;;;;;;;8.93;3.37;;;2.60;99.90;;;;;;4976811;28;20482;-72
2022/01/05 17:57:31;;;;;;;6.10;2.40;;;2.70;99.90;;;;;;4976937;28;20539;-72
2022/01/05 17:59:58;;;;;;;10.93;4.03;;;2.70;99.90;;;;;;4976212;28;20527;-72
2022/01/05 18:02:26;;;;;;;6.43;2.67;;;2.70;99.90;;;;;;4976215;28;20522;-71
2022/01/05 18:04:53;;;;;;;4.50;2.63;;;2.60;99.90;;;;;;4976357;28;21088;-71
2022/01/05 18:07:21;;;;;;;6.00;3.10;;;2.70;99.90;;;;;;4976609;28;20631;-73
2022/01/05 18:09:47;;;;;;;15.77;3.10;;;2.60;99.90;;;;;;4976066;28;20483;-73
2022/01/05 18:12:14;;;;;;;5.80;3.23;;;2.70;99.90;;;;;;4976308;28;20511;-73
2022/01/05 18:14:43;;;;;;;7.00;3.30;;;2.70;99.90;;;;;;4976293;28;20491;-73
2022/01/05 18:17:10;;;;;;;6.33;3.20;;;2.70;99.90;;;;;;4976446;28;20448;-73